sensor_id;sensor_type;location;lat;lon;timestamp;P1;durP1;ratioP1;P2;durP2;ratioP2
47225;SDS011;32965;64.142;-21.912;2023-08-08T00:01:45;2.80;;;1.92;;
47225;SDS011;32965;64.142;-21.912;2023-08-08T00:04:11;4.70;;;2.75;;
47225;SDS011;32965;64.142;-21.912;2023-08-08T00:06:37;4.47;;;2.67;;
47225;SDS011;32965;64.142;-21.912;2023-08-08T00:09:03;4.18;;;2.40;;
47225;SDS011;32965;64.142;-21.912;2023-08-08T00:11:29;3.60;;;2.42;;
47225;SDS011;32965;64.142;-21.912;2023-08-08T00:13:56;3.28;;;2.38;;
47225;SDS011;32965;64.142;-21.912;2023-08-08T00:16:22;3.67;;;2.50;;
47225;SDS011;32965;64.142;-21.912;2023-08-08T00:18:48;4.00;;;2.20;;
47225;SDS011;32965;64.142;-21.912;2023-08-08T00:21:19;3.67;;;2.55;;
47225;SDS011;32965;64.142;-21.912;2023-08-08T00:23:45;2.60;;;2.05;;
47225;SDS011;32965;64.142;-21.912;2023-08-08T00:26:11;2.50;;;2.10;;
47225;SDS011;32965;64.142;-21.912;2023-08-08T00:28:37;2.95;;;2.30;;
47225;SDS011;32965;64.142;-21.912;2023-08-08T00:31:04;2.80;;;2.20;;
47225;SDS011;32965;64.142;-21.912;2023-08-08T00:33:29;2.35;;;1.90;;
47225;SDS011;32965;64.142;-21.912;2023-08-08T00:35:55;1.90;;;1.70;;
47225;SDS011;32965;64.142;-21.912;2023-08-08T00:38:21;4.38;;;2.42;;
47225;SDS011;32965;64.142;-21.912;2023-08-08T00:40:47;4.70;;;2.15;;
47225;SDS011;32965;64.142;-21.912;2023-08-08T00:43:12;3.00;;;2.60;;
47225;SDS011;32965;64.142;-21.912;2023-08-08T00:45:39;2.47;;;2.28;;
47225;SDS011;32965;64.142;-21.912;2023-08-08T00:48:08;2.95;;;2.20;;
47225;SDS011;32965;64.142;-21.912;2023-08-08T00:50:35;3.67;;;2.20;;
47225;SDS011;32965;64.142;-21.912;2023-08-08T00:53:03;7.05;;;2.55;;
47225;SDS011;32965;64.142;-21.912;2023-08-08T00:55:30;3.28;;;2.25;;
47225;SDS011;32965;64.142;-21.912;2023-08-08T00:57:56;4.80;;;2.60;;
47225;SDS011;32965;64.142;-21.912;2023-08-08T01:00:22;2.22;;;1.95;;
47225;SDS011;32965;64.142;-21.912;2023-08-08T01:02:48;4.95;;;2.67;;
47225;SDS011;32965;64.142;-21.912;2023-08-08T01:05:14;4.38;;;2.75;;
47225;SDS011;32965;64.142;-21.912;2023-08-08T01:10:19;7.10;;;2.92;;
47225;SDS011;32965;64.142;-21.912;2023-08-08T01:12:50;3.40;;;2.22;;
47225;SDS011;32965;64.142;-21.912;2023-08-08T01:15:20;5.20;;;3.33;;
47225;SDS011;32965;64.142;-21.912;2023-08-08T01:17:47;6.45;;;3.50;;
47225;SDS011;32965;64.142;-21.912;2023-08-08T01:20:14;7.00;;;3.03;;
47225;SDS011;32965;64.142;-21.912;2023-08-08T01:22:50;6.30;;;3.40;;
47225;SDS011;32965;64.142;-21.912;2023-08-08T01:25:34;8.50;;;3.40;;
47225;SDS011;32965;64.142;-21.912;2023-08-08T01:28:00;6.97;;;3.22;;
47225;SDS011;32965;64.142;-21.912;2023-08-08T01:30:26;5.47;;;2.72;;
47225;SDS011;32965;64.142;-21.912;2023-08-08T01:32:52;6.50;;;3.83;;
47225;SDS011;32965;64.142;-21.912;2023-08-08T01:35:17;4.68;;;3.00;;
47225;SDS011;32965;64.142;-21.912;2023-08-08T01:37:44;6.78;;;3.97;;
47225;SDS011;32965;64.142;-21.912;2023-08-08T01:40:15;6.63;;;3.45;;
47225;SDS011;32965;64.142;-21.912;2023-08-08T01:42:45;8.77;;;3.83;;
47225;SDS011;32965;64.142;-21.912;2023-08-08T01:45:13;7.30;;;3.95;;
47225;SDS011;32965;64.142;-21.912;2023-08-08T01:47:40;8.88;;;3.90;;
47225;SDS011;32965;64.142;-21.912;2023-08-08T01:50:06;6.88;;;3.63;;
47225;SDS011;32965;64.142;-21.912;2023-08-08T01:52:34;8.82;;;3.80;;
47225;SDS011;32965;64.142;-21.912;2023-08-08T01:55:00;8.15;;;4.18;;
47225;SDS011;32965;64.142;-21.912;2023-08-08T01:57:26;7.80;;;4.15;;
47225;SDS011;32965;64.142;-21.912;2023-08-08T01:59:52;8.05;;;4.25;;
47225;SDS011;32965;64.142;-21.912;2023-08-08T02:02:18;8.35;;;3.92;;
47225;SDS011;32965;64.142;-21.912;2023-08-08T02:04:43;6.18;;;3.80;;
47225;SDS011;32965;64.142;-21.912;2023-08-08T02:07:09;7.30;;;4.03;;
47225;SDS011;32965;64.142;-21.912;2023-08-08T02:09:35;9.18;;;4.25;;
47225;SDS011;32965;64.142;-21.912;2023-08-08T02:12:01;7.20;;;4.07;;
47225;SDS011;32965;64.142;-21.912;2023-08-08T02:14:27;6.53;;;3.83;;
47225;SDS011;32965;64.142;-21.912;2023-08-08T02:16:52;7.10;;;3.67;;
47225;SDS011;32965;64.142;-21.912;2023-08-08T02:19:18;8.20;;;3.70;;
47225;SDS011;32965;64.142;-21.912;2023-08-08T02:21:44;6.10;;;3.83;;
47225;SDS011;32965;64.142;-21.912;2023-08-08T02:24:10;5.32;;;3.55;;
47225;SDS011;32965;64.142;-21.912;2023-08-08T02:26:35;6.30;;;4.03;;
47225;SDS011;32965;64.142;-21.912;2023-08-08T02:29:01;6.70;;;4.00;;
47225;SDS011;32965;64.142;-21.912;2023-08-08T02:31:27;6.38;;;4.32;;
47225;SDS011;32965;64.142;-21.912;2023-08-08T02:33:53;8.45;;;4.30;;
47225;SDS011;32965;64.142;-21.912;2023-08-08T02:36:20;7.07;;;3.88;;
47225;SDS011;32965;64.142;-21.912;2023-08-08T02:38:45;6.43;;;3.75;;
47225;SDS011;32965;64.142;-21.912;2023-08-08T02:41:11;6.28;;;4.03;;
47225;SDS011;32965;64.142;-21.912;2023-08-08T02:43:37;6.78;;;4.00;;
47225;SDS011;32965;64.142;-21.912;2023-08-08T02:46:03;7.53;;;4.13;;
47225;SDS011;32965;64.142;-21.912;2023-08-08T02:48:29;5.60;;;3.70;;
47225;SDS011;32965;64.142;-21.912;2023-08-08T02:50:56;4.38;;;3.38;;
47225;SDS011;32965;64.142;-21.912;2023-08-08T02:53:21;5.65;;;3.50;;
47225;SDS011;32965;64.142;-21.912;2023-08-08T02:55:47;5.72;;;3.55;;
47225;SDS011;32965;64.142;-21.912;2023-08-08T02:58:13;6.25;;;3.72;;
47225;SDS011;32965;64.142;-21.912;2023-08-08T03:00:39;6.93;;;3.55;;
47225;SDS011;32965;64.142;-21.912;2023-08-08T03:03:04;6.35;;;3.78;;
47225;SDS011;32965;64.142;-21.912;2023-08-08T03:05:30;7.72;;;3.60;;
47225;SDS011;32965;64.142;-21.912;2023-08-08T03:07:56;6.38;;;3.70;;
47225;SDS011;32965;64.142;-21.912;2023-08-08T03:10:22;5.47;;;3.80;;
47225;SDS011;32965;64.142;-21.912;2023-08-08T03:12:47;4.90;;;3.42;;
47225;SDS011;32965;64.142;-21.912;2023-08-08T03:15:13;5.93;;;3.13;;
47225;SDS011;32965;64.142;-21.912;2023-08-08T03:17:39;6.03;;;3.53;;
47225;SDS011;32965;64.142;-21.912;2023-08-08T03:20:05;5.90;;;3.40;;
47225;SDS011;32965;64.142;-21.912;2023-08-08T03:22:32;6.10;;;3.75;;
47225;SDS011;32965;64.142;-21.912;2023-08-08T03:24:58;6.38;;;3.60;;
47225;SDS011;32965;64.142;-21.912;2023-08-08T03:27:24;6.07;;;3.95;;
47225;SDS011;32965;64.142;-21.912;2023-08-08T03:29:50;5.03;;;3.60;;
47225;SDS011;32965;64.142;-21.912;2023-08-08T03:32:16;5.28;;;3.55;;
47225;SDS011;32965;64.142;-21.912;2023-08-08T03:34:42;5.80;;;3.60;;
47225;SDS011;32965;64.142;-21.912;2023-08-08T03:37:08;5.45;;;3.33;;
47225;SDS011;32965;64.142;-21.912;2023-08-08T03:39:34;4.57;;;3.20;;
47225;SDS011;32965;64.142;-21.912;2023-08-08T03:42:00;7.55;;;3.88;;
47225;SDS011;32965;64.142;-21.912;2023-08-08T03:44:25;8.00;;;4.10;;
47225;SDS011;32965;64.142;-21.912;2023-08-08T03:46:51;6.47;;;3.42;;
47225;SDS011;32965;64.142;-21.912;2023-08-08T03:49:17;6.78;;;3.60;;
47225;SDS011;32965;64.142;-21.912;2023-08-08T03:51:43;8.35;;;3.70;;
47225;SDS011;32965;64.142;-21.912;2023-08-08T03:54:09;8.07;;;4.03;;
47225;SDS011;32965;64.142;-21.912;2023-08-08T03:56:34;7.20;;;3.50;;
47225;SDS011;32965;64.142;-21.912;2023-08-08T03:59:00;7.10;;;3.67;;
47225;SDS011;32965;64.142;-21.912;2023-08-08T04:01:26;5.80;;;3.28;;
47225;SDS011;32965;64.142;-21.912;2023-08-08T04:03:52;7.60;;;3.83;;
47225;SDS011;32965;64.142;-21.912;2023-08-08T04:06:17;5.88;;;3.88;;
47225;SDS011;32965;64.142;-21.912;2023-08-08T04:08:43;8.32;;;3.80;;
47225;SDS011;32965;64.142;-21.912;2023-08-08T04:11:09;7.15;;;3.00;;
47225;SDS011;32965;64.142;-21.912;2023-08-08T04:13:34;7.30;;;3.67;;
47225;SDS011;32965;64.142;-21.912;2023-08-08T04:16:00;6.40;;;3.00;;
47225;SDS011;32965;64.142;-21.912;2023-08-08T04:18:26;4.38;;;2.72;;
47225;SDS011;32965;64.142;-21.912;2023-08-08T04:20:52;5.32;;;3.45;;
47225;SDS011;32965;64.142;-21.912;2023-08-08T04:23:18;6.45;;;3.03;;
47225;SDS011;32965;64.142;-21.912;2023-08-08T04:25:44;9.70;;;3.55;;
47225;SDS011;32965;64.142;-21.912;2023-08-08T04:28:10;4.60;;;2.60;;
47225;SDS011;32965;64.142;-21.912;2023-08-08T04:30:35;9.60;;;3.05;;
47225;SDS011;32965;64.142;-21.912;2023-08-08T04:33:01;6.68;;;3.15;;
47225;SDS011;32965;64.142;-21.912;2023-08-08T04:35:27;6.25;;;3.00;;
47225;SDS011;32965;64.142;-21.912;2023-08-08T04:37:53;6.50;;;3.15;;
47225;SDS011;32965;64.142;-21.912;2023-08-08T04:40:18;4.50;;;2.85;;
47225;SDS011;32965;64.142;-21.912;2023-08-08T04:42:44;5.40;;;2.88;;
47225;SDS011;32965;64.142;-21.912;2023-08-08T04:45:10;6.68;;;2.80;;
47225;SDS011;32965;64.142;-21.912;2023-08-08T04:47:36;4.80;;;2.70;;
47225;SDS011;32965;64.142;-21.912;2023-08-08T04:50:01;4.50;;;2.13;;
47225;SDS011;32965;64.142;-21.912;2023-08-08T04:52:27;5.03;;;2.58;;
47225;SDS011;32965;64.142;-21.912;2023-08-08T04:54:53;5.38;;;2.83;;
47225;SDS011;32965;64.142;-21.912;2023-08-08T04:57:19;2.90;;;1.90;;
47225;SDS011;32965;64.142;-21.912;2023-08-08T04:59:44;3.60;;;1.90;;
47225;SDS011;32965;64.142;-21.912;2023-08-08T05:02:11;3.40;;;2.10;;
47225;SDS011;32965;64.142;-21.912;2023-08-08T05:04:36;3.72;;;1.88;;
47225;SDS011;32965;64.142;-21.912;2023-08-08T05:07:02;3.05;;;1.70;;
47225;SDS011;32965;64.142;-21.912;2023-08-08T05:09:28;3.25;;;2.28;;
47225;SDS011;32965;64.142;-21.912;2023-08-08T05:11:54;3.17;;;1.95;;
47225;SDS011;32965;64.142;-21.912;2023-08-08T05:14:20;4.35;;;2.00;;
47225;SDS011;32965;64.142;-21.912;2023-08-08T05:16:45;5.00;;;1.88;;
47225;SDS011;32965;64.142;-21.912;2023-08-08T05:19:11;3.83;;;2.00;;
47225;SDS011;32965;64.142;-21.912;2023-08-08T05:21:37;3.25;;;2.13;;
47225;SDS011;32965;64.142;-21.912;2023-08-08T05:24:03;4.35;;;1.65;;
47225;SDS011;32965;64.142;-21.912;2023-08-08T05:26:29;3.28;;;1.80;;
47225;SDS011;32965;64.142;-21.912;2023-08-08T05:28:55;8.10;;;2.97;;
47225;SDS011;32965;64.142;-21.912;2023-08-08T05:31:21;2.88;;;1.77;;
47225;SDS011;32965;64.142;-21.912;2023-08-08T05:33:48;2.58;;;1.90;;
47225;SDS011;32965;64.142;-21.912;2023-08-08T05:36:14;3.03;;;1.75;;
47225;SDS011;32965;64.142;-21.912;2023-08-08T05:38:40;2.85;;;1.83;;
47225;SDS011;32965;64.142;-21.912;2023-08-08T05:41:06;5.00;;;1.77;;
47225;SDS011;32965;64.142;-21.912;2023-08-08T05:43:33;6.78;;;2.20;;
47225;SDS011;32965;64.142;-21.912;2023-08-08T05:45:58;3.13;;;1.90;;
47225;SDS011;32965;64.142;-21.912;2023-08-08T05:48:24;4.97;;;1.90;;
47225;SDS011;32965;64.142;-21.912;2023-08-08T05:50:50;4.07;;;2.17;;
47225;SDS011;32965;64.142;-21.912;2023-08-08T05:53:16;3.40;;;1.33;;
47225;SDS011;32965;64.142;-21.912;2023-08-08T05:55:42;3.25;;;1.58;;
47225;SDS011;32965;64.142;-21.912;2023-08-08T05:58:08;4.57;;;1.52;;
47225;SDS011;32965;64.142;-21.912;2023-08-08T06:00:34;4.85;;;1.83;;
47225;SDS011;32965;64.142;-21.912;2023-08-08T06:03:00;3.88;;;2.13;;
47225;SDS011;32965;64.142;-21.912;2023-08-08T06:05:26;3.75;;;1.45;;
47225;SDS011;32965;64.142;-21.912;2023-08-08T06:07:53;2.10;;;1.25;;
47225;SDS011;32965;64.142;-21.912;2023-08-08T06:12:48;1.67;;;1.33;;
47225;SDS011;32965;64.142;-21.912;2023-08-08T06:15:14;3.58;;;2.00;;
47225;SDS011;32965;64.142;-21.912;2023-08-08T06:17:39;2.40;;;1.75;;
47225;SDS011;32965;64.142;-21.912;2023-08-08T06:20:05;4.90;;;1.60;;
47225;SDS011;32965;64.142;-21.912;2023-08-08T06:22:33;2.90;;;1.27;;
47225;SDS011;32965;64.142;-21.912;2023-08-08T06:24:58;2.22;;;1.45;;
47225;SDS011;32965;64.142;-21.912;2023-08-08T06:27:24;1.77;;;1.02;;
47225;SDS011;32965;64.142;-21.912;2023-08-08T06:29:50;4.00;;;1.70;;
47225;SDS011;32965;64.142;-21.912;2023-08-08T06:32:16;2.65;;;1.20;;
47225;SDS011;32965;64.142;-21.912;2023-08-08T06:34:42;2.15;;;1.33;;
47225;SDS011;32965;64.142;-21.912;2023-08-08T06:37:07;1.95;;;1.17;;
47225;SDS011;32965;64.142;-21.912;2023-08-08T06:39:33;2.60;;;1.10;;
47225;SDS011;32965;64.142;-21.912;2023-08-08T06:42:00;4.43;;;1.45;;
47225;SDS011;32965;64.142;-21.912;2023-08-08T06:44:26;5.30;;;2.03;;
47225;SDS011;32965;64.142;-21.912;2023-08-08T06:46:52;3.08;;;1.42;;
47225;SDS011;32965;64.142;-21.912;2023-08-08T06:49:17;4.32;;;1.58;;
47225;SDS011;32965;64.142;-21.912;2023-08-08T06:51:43;1.92;;;1.45;;
47225;SDS011;32965;64.142;-21.912;2023-08-08T06:54:09;2.20;;;1.40;;
47225;SDS011;32965;64.142;-21.912;2023-08-08T06:56:35;1.48;;;1.20;;
47225;SDS011;32965;64.142;-21.912;2023-08-08T06:59:00;2.30;;;1.20;;
47225;SDS011;32965;64.142;-21.912;2023-08-08T07:01:26;2.65;;;1.60;;
47225;SDS011;32965;64.142;-21.912;2023-08-08T07:03:52;4.22;;;1.55;;
47225;SDS011;32965;64.142;-21.912;2023-08-08T07:06:18;2.35;;;1.48;;
47225;SDS011;32965;64.142;-21.912;2023-08-08T07:08:44;5.38;;;1.92;;
47225;SDS011;32965;64.142;-21.912;2023-08-08T07:11:09;2.45;;;1.58;;
47225;SDS011;32965;64.142;-21.912;2023-08-08T07:13:35;3.10;;;1.65;;
47225;SDS011;32965;64.142;-21.912;2023-08-08T07:16:01;3.72;;;1.73;;
47225;SDS011;32965;64.142;-21.912;2023-08-08T07:18:27;3.15;;;1.83;;
47225;SDS011;32965;64.142;-21.912;2023-08-08T07:20:53;3.33;;;1.33;;
47225;SDS011;32965;64.142;-21.912;2023-08-08T07:23:21;3.15;;;1.33;;
47225;SDS011;32965;64.142;-21.912;2023-08-08T07:25:47;2.95;;;1.38;;
47225;SDS011;32965;64.142;-21.912;2023-08-08T07:28:13;3.15;;;1.40;;
47225;SDS011;32965;64.142;-21.912;2023-08-08T07:30:40;1.50;;;1.30;;
47225;SDS011;32965;64.142;-21.912;2023-08-08T07:33:06;5.22;;;1.67;;
47225;SDS011;32965;64.142;-21.912;2023-08-08T07:35:35;2.85;;;1.33;;
47225;SDS011;32965;64.142;-21.912;2023-08-08T07:38:00;2.63;;;1.50;;
47225;SDS011;32965;64.142;-21.912;2023-08-08T07:40:27;2.45;;;1.27;;
47225;SDS011;32965;64.142;-21.912;2023-08-08T07:42:53;3.75;;;1.35;;
47225;SDS011;32965;64.142;-21.912;2023-08-08T07:45:19;2.22;;;1.27;;
47225;SDS011;32965;64.142;-21.912;2023-08-08T07:47:45;3.92;;;1.50;;
47225;SDS011;32965;64.142;-21.912;2023-08-08T07:50:11;3.67;;;1.20;;
47225;SDS011;32965;64.142;-21.912;2023-08-08T07:52:37;2.30;;;1.17;;
47225;SDS011;32965;64.142;-21.912;2023-08-08T07:55:04;2.28;;;1.42;;
47225;SDS011;32965;64.142;-21.912;2023-08-08T07:57:31;2.65;;;1.00;;
47225;SDS011;32965;64.142;-21.912;2023-08-08T08:02:32;2.92;;;1.17;;
47225;SDS011;32965;64.142;-21.912;2023-08-08T08:04:58;1.58;;;1.15;;
47225;SDS011;32965;64.142;-21.912;2023-08-08T08:07:23;1.38;;;1.05;;
47225;SDS011;32965;64.142;-21.912;2023-08-08T08:09:49;3.22;;;1.25;;
47225;SDS011;32965;64.142;-21.912;2023-08-08T08:12:15;2.10;;;1.00;;
47225;SDS011;32965;64.142;-21.912;2023-08-08T08:14:41;1.55;;;0.90;;
47225;SDS011;32965;64.142;-21.912;2023-08-08T08:17:07;1.20;;;0.85;;
47225;SDS011;32965;64.142;-21.912;2023-08-08T08:19:33;1.92;;;0.93;;
47225;SDS011;32965;64.142;-21.912;2023-08-08T08:21:59;2.42;;;1.00;;
47225;SDS011;32965;64.142;-21.912;2023-08-08T08:24:25;1.50;;;0.80;;
47225;SDS011;32965;64.142;-21.912;2023-08-08T08:26:51;2.30;;;0.90;;
47225;SDS011;32965;64.142;-21.912;2023-08-08T08:29:17;1.92;;;1.10;;
47225;SDS011;32965;64.142;-21.912;2023-08-08T08:31:42;2.65;;;1.10;;
47225;SDS011;32965;64.142;-21.912;2023-08-08T08:34:08;2.08;;;1.10;;
47225;SDS011;32965;64.142;-21.912;2023-08-08T08:36:34;1.10;;;1.00;;
47225;SDS011;32965;64.142;-21.912;2023-08-08T08:39:00;2.92;;;1.00;;
47225;SDS011;32965;64.142;-21.912;2023-08-08T08:41:26;1.75;;;0.90;;
47225;SDS011;32965;64.142;-21.912;2023-08-08T08:43:53;3.92;;;1.15;;
47225;SDS011;32965;64.142;-21.912;2023-08-08T08:46:20;1.42;;;1.00;;
47225;SDS011;32965;64.142;-21.912;2023-08-08T08:48:47;1.33;;;0.93;;
47225;SDS011;32965;64.142;-21.912;2023-08-08T08:51:15;3.05;;;1.10;;
47225;SDS011;32965;64.142;-21.912;2023-08-08T08:53:42;2.08;;;1.00;;
47225;SDS011;32965;64.142;-21.912;2023-08-08T08:56:11;1.02;;;0.70;;
47225;SDS011;32965;64.142;-21.912;2023-08-08T08:58:41;2.00;;;0.90;;
47225;SDS011;32965;64.142;-21.912;2023-08-08T09:01:08;0.80;;;0.57;;
47225;SDS011;32965;64.142;-21.912;2023-08-08T09:03:35;0.70;;;0.70;;
47225;SDS011;32965;64.142;-21.912;2023-08-08T09:06:02;4.82;;;1.17;;
47225;SDS011;32965;64.142;-21.912;2023-08-08T09:08:29;1.52;;;0.60;;
47225;SDS011;32965;64.142;-21.912;2023-08-08T09:10:55;1.83;;;1.08;;
47225;SDS011;32965;64.142;-21.912;2023-08-08T09:13:22;0.90;;;0.60;;
47225;SDS011;32965;64.142;-21.912;2023-08-08T09:15:50;2.00;;;0.70;;
47225;SDS011;32965;64.142;-21.912;2023-08-08T09:18:17;1.98;;;0.73;;
47225;SDS011;32965;64.142;-21.912;2023-08-08T09:20:48;1.00;;;0.82;;
47225;SDS011;32965;64.142;-21.912;2023-08-08T09:23:16;1.33;;;0.70;;
47225;SDS011;32965;64.142;-21.912;2023-08-08T09:25:41;1.33;;;0.73;;
47225;SDS011;32965;64.142;-21.912;2023-08-08T09:28:07;1.90;;;1.05;;
47225;SDS011;32965;64.142;-21.912;2023-08-08T09:30:33;1.48;;;1.00;;
47225;SDS011;32965;64.142;-21.912;2023-08-08T09:33:00;2.90;;;1.33;;
47225;SDS011;32965;64.142;-21.912;2023-08-08T09:35:28;2.40;;;1.25;;
47225;SDS011;32965;64.142;-21.912;2023-08-08T09:37:55;2.10;;;1.30;;
47225;SDS011;32965;64.142;-21.912;2023-08-08T09:40:21;1.20;;;1.00;;
47225;SDS011;32965;64.142;-21.912;2023-08-08T09:42:50;2.78;;;1.10;;
47225;SDS011;32965;64.142;-21.912;2023-08-08T09:45:17;1.83;;;1.23;;
47225;SDS011;32965;64.142;-21.912;2023-08-08T09:47:43;2.50;;;0.93;;
47225;SDS011;32965;64.142;-21.912;2023-08-08T09:50:09;1.40;;;0.90;;
47225;SDS011;32965;64.142;-21.912;2023-08-08T09:52:35;1.77;;;1.13;;
47225;SDS011;32965;64.142;-21.912;2023-08-08T09:55:04;1.85;;;1.05;;
47225;SDS011;32965;64.142;-21.912;2023-08-08T09:57:30;2.83;;;1.27;;
47225;SDS011;32965;64.142;-21.912;2023-08-08T09:59:57;1.15;;;0.80;;
47225;SDS011;32965;64.142;-21.912;2023-08-08T10:02:24;1.50;;;0.80;;
47225;SDS011;32965;64.142;-21.912;2023-08-08T10:04:50;0.90;;;0.80;;
47225;SDS011;32965;64.142;-21.912;2023-08-08T10:07:17;1.63;;;0.98;;
47225;SDS011;32965;64.142;-21.912;2023-08-08T10:09:43;1.55;;;1.17;;
47225;SDS011;32965;64.142;-21.912;2023-08-08T10:12:10;1.60;;;0.80;;
47225;SDS011;32965;64.142;-21.912;2023-08-08T10:14:37;1.55;;;1.10;;
47225;SDS011;32965;64.142;-21.912;2023-08-08T10:17:06;1.77;;;1.00;;
47225;SDS011;32965;64.142;-21.912;2023-08-08T10:19:32;1.70;;;0.93;;
47225;SDS011;32965;64.142;-21.912;2023-08-08T10:22:03;2.70;;;1.40;;
47225;SDS011;32965;64.142;-21.912;2023-08-08T10:24:33;2.50;;;1.27;;
47225;SDS011;32965;64.142;-21.912;2023-08-08T10:27:01;2.47;;;1.27;;
47225;SDS011;32965;64.142;-21.912;2023-08-08T10:29:30;1.70;;;1.13;;
47225;SDS011;32965;64.142;-21.912;2023-08-08T10:32:05;1.77;;;1.10;;
47225;SDS011;32965;64.142;-21.912;2023-08-08T10:37:10;2.08;;;1.05;;
47225;SDS011;32965;64.142;-21.912;2023-08-08T10:39:37;1.98;;;1.00;;
47225;SDS011;32965;64.142;-21.912;2023-08-08T10:42:17;1.92;;;1.00;;
47225;SDS011;32965;64.142;-21.912;2023-08-08T10:44:50;2.35;;;1.10;;
47225;SDS011;32965;64.142;-21.912;2023-08-08T10:47:26;2.22;;;1.10;;
47225;SDS011;32965;64.142;-21.912;2023-08-08T10:50:08;1.40;;;0.95;;
47225;SDS011;32965;64.142;-21.912;2023-08-08T10:55:27;1.90;;;1.05;;
47225;SDS011;32965;64.142;-21.912;2023-08-08T10:58:04;3.00;;;1.45;;
47225;SDS011;32965;64.142;-21.912;2023-08-08T11:00:31;1.50;;;1.20;;
47225;SDS011;32965;64.142;-21.912;2023-08-08T11:02:58;4.65;;;1.60;;
47225;SDS011;32965;64.142;-21.912;2023-08-08T11:05:25;2.10;;;1.25;;
47225;SDS011;32965;64.142;-21.912;2023-08-08T11:07:54;2.22;;;1.30;;
47225;SDS011;32965;64.142;-21.912;2023-08-08T11:10:21;2.33;;;1.00;;
47225;SDS011;32965;64.142;-21.912;2023-08-08T11:13:02;4.28;;;1.50;;
47225;SDS011;32965;64.142;-21.912;2023-08-08T11:15:31;1.95;;;1.17;;
47225;SDS011;32965;64.142;-21.912;2023-08-08T11:17:59;2.63;;;1.02;;
47225;SDS011;32965;64.142;-21.912;2023-08-08T11:20:29;2.08;;;1.20;;
47225;SDS011;32965;64.142;-21.912;2023-08-08T11:22:56;2.13;;;1.27;;
47225;SDS011;32965;64.142;-21.912;2023-08-08T11:25:25;3.05;;;1.63;;
47225;SDS011;32965;64.142;-21.912;2023-08-08T11:27:52;4.93;;;1.08;;
47225;SDS011;32965;64.142;-21.912;2023-08-08T11:30:18;1.70;;;1.05;;
47225;SDS011;32965;64.142;-21.912;2023-08-08T11:32:45;4.00;;;1.27;;
47225;SDS011;32965;64.142;-21.912;2023-08-08T11:35:15;1.98;;;1.30;;
47225;SDS011;32965;64.142;-21.912;2023-08-08T11:37:48;3.70;;;1.42;;
47225;SDS011;32965;64.142;-21.912;2023-08-08T11:40:17;2.00;;;1.30;;
47225;SDS011;32965;64.142;-21.912;2023-08-08T11:42:45;4.05;;;1.40;;
47225;SDS011;32965;64.142;-21.912;2023-08-08T11:45:11;2.20;;;1.20;;
47225;SDS011;32965;64.142;-21.912;2023-08-08T11:47:38;1.25;;;0.88;;
47225;SDS011;32965;64.142;-21.912;2023-08-08T11:50:05;2.15;;;1.13;;
47225;SDS011;32965;64.142;-21.912;2023-08-08T11:52:33;2.20;;;1.17;;
47225;SDS011;32965;64.142;-21.912;2023-08-08T11:55:01;2.97;;;1.05;;
47225;SDS011;32965;64.142;-21.912;2023-08-08T11:57:27;2.13;;;0.80;;
47225;SDS011;32965;64.142;-21.912;2023-08-08T11:59:53;1.55;;;0.80;;
47225;SDS011;32965;64.142;-21.912;2023-08-08T12:02:19;2.30;;;1.05;;
47225;SDS011;32965;64.142;-21.912;2023-08-08T12:04:45;3.20;;;1.13;;
47225;SDS011;32965;64.142;-21.912;2023-08-08T12:07:11;2.85;;;1.10;;
47225;SDS011;32965;64.142;-21.912;2023-08-08T12:09:37;1.60;;;1.13;;
47225;SDS011;32965;64.142;-21.912;2023-08-08T12:12:04;2.35;;;0.95;;
47225;SDS011;32965;64.142;-21.912;2023-08-08T12:14:36;2.83;;;1.13;;
47225;SDS011;32965;64.142;-21.912;2023-08-08T12:17:06;3.03;;;1.08;;
47225;SDS011;32965;64.142;-21.912;2023-08-08T12:19:34;2.15;;;0.98;;
47225;SDS011;32965;64.142;-21.912;2023-08-08T12:21:59;2.05;;;1.17;;
47225;SDS011;32965;64.142;-21.912;2023-08-08T12:24:25;5.65;;;1.92;;
47225;SDS011;32965;64.142;-21.912;2023-08-08T12:26:51;1.60;;;0.70;;
47225;SDS011;32965;64.142;-21.912;2023-08-08T12:29:17;3.05;;;1.20;;
47225;SDS011;32965;64.142;-21.912;2023-08-08T12:31:44;1.50;;;0.80;;
47225;SDS011;32965;64.142;-21.912;2023-08-08T12:34:10;1.20;;;0.47;;
47225;SDS011;32965;64.142;-21.912;2023-08-08T12:36:35;2.22;;;0.90;;
47225;SDS011;32965;64.142;-21.912;2023-08-08T12:39:02;1.88;;;1.02;;
47225;SDS011;32965;64.142;-21.912;2023-08-08T12:41:27;0.90;;;0.65;;
47225;SDS011;32965;64.142;-21.912;2023-08-08T12:43:54;3.55;;;1.08;;
47225;SDS011;32965;64.142;-21.912;2023-08-08T12:46:21;4.82;;;1.40;;
47225;SDS011;32965;64.142;-21.912;2023-08-08T12:48:47;4.00;;;1.02;;
47225;SDS011;32965;64.142;-21.912;2023-08-08T12:51:12;3.10;;;1.20;;
47225;SDS011;32965;64.142;-21.912;2023-08-08T12:53:39;2.75;;;0.77;;
47225;SDS011;32965;64.142;-21.912;2023-08-08T12:56:04;1.00;;;0.73;;
47225;SDS011;32965;64.142;-21.912;2023-08-08T12:58:30;2.35;;;1.10;;
47225;SDS011;32965;64.142;-21.912;2023-08-08T13:00:56;1.58;;;0.63;;
47225;SDS011;32965;64.142;-21.912;2023-08-08T13:03:22;2.60;;;1.35;;
47225;SDS011;32965;64.142;-21.912;2023-08-08T13:05:47;1.48;;;1.17;;
47225;SDS011;32965;64.142;-21.912;2023-08-08T13:08:13;2.22;;;1.35;;
47225;SDS011;32965;64.142;-21.912;2023-08-08T13:10:40;1.80;;;1.00;;
47225;SDS011;32965;64.142;-21.912;2023-08-08T13:13:05;4.65;;;1.25;;
47225;SDS011;32965;64.142;-21.912;2023-08-08T13:15:32;4.45;;;1.00;;
47225;SDS011;32965;64.142;-21.912;2023-08-08T13:17:58;3.58;;;1.67;;
47225;SDS011;32965;64.142;-21.912;2023-08-08T13:20:26;3.88;;;1.00;;
47225;SDS011;32965;64.142;-21.912;2023-08-08T13:22:52;3.80;;;1.92;;
47225;SDS011;32965;64.142;-21.912;2023-08-08T13:25:19;3.88;;;1.65;;
47225;SDS011;32965;64.142;-21.912;2023-08-08T13:27:45;3.22;;;1.50;;
47225;SDS011;32965;64.142;-21.912;2023-08-08T13:30:12;4.65;;;1.92;;
47225;SDS011;32965;64.142;-21.912;2023-08-08T13:32:40;2.78;;;0.93;;
47225;SDS011;32965;64.142;-21.912;2023-08-08T13:35:06;4.80;;;1.83;;
47225;SDS011;32965;64.142;-21.912;2023-08-08T13:37:32;5.82;;;1.70;;
47225;SDS011;32965;64.142;-21.912;2023-08-08T13:39:58;3.00;;;1.55;;
47225;SDS011;32965;64.142;-21.912;2023-08-08T13:42:23;1.25;;;0.88;;
47225;SDS011;32965;64.142;-21.912;2023-08-08T13:44:49;2.55;;;1.02;;
47225;SDS011;32965;64.142;-21.912;2023-08-08T13:47:15;3.55;;;1.23;;
47225;SDS011;32965;64.142;-21.912;2023-08-08T13:49:41;23.05;;;4.38;;
47225;SDS011;32965;64.142;-21.912;2023-08-08T13:52:08;1.58;;;0.82;;
47225;SDS011;32965;64.142;-21.912;2023-08-08T13:54:33;2.58;;;1.73;;
47225;SDS011;32965;64.142;-21.912;2023-08-08T13:57:00;3.45;;;1.52;;
47225;SDS011;32965;64.142;-21.912;2023-08-08T13:59:26;3.67;;;1.30;;
47225;SDS011;32965;64.142;-21.912;2023-08-08T14:01:52;4.32;;;1.63;;
47225;SDS011;32965;64.142;-21.912;2023-08-08T14:04:17;3.08;;;1.20;;
47225;SDS011;32965;64.142;-21.912;2023-08-08T14:06:43;6.35;;;1.98;;
47225;SDS011;32965;64.142;-21.912;2023-08-08T14:09:10;4.43;;;1.50;;
47225;SDS011;32965;64.142;-21.912;2023-08-08T14:11:36;1.52;;;1.05;;
47225;SDS011;32965;64.142;-21.912;2023-08-08T14:14:02;4.88;;;1.92;;
47225;SDS011;32965;64.142;-21.912;2023-08-08T14:16:28;3.97;;;1.67;;
47225;SDS011;32965;64.142;-21.912;2023-08-08T14:18:54;3.28;;;1.42;;
47225;SDS011;32965;64.142;-21.912;2023-08-08T14:21:20;2.92;;;1.23;;
47225;SDS011;32965;64.142;-21.912;2023-08-08T14:23:45;2.35;;;1.63;;
47225;SDS011;32965;64.142;-21.912;2023-08-08T14:26:12;3.22;;;1.38;;
47225;SDS011;32965;64.142;-21.912;2023-08-08T14:28:38;4.18;;;1.98;;
47225;SDS011;32965;64.142;-21.912;2023-08-08T14:31:03;7.88;;;2.25;;